createdAt,value
2022-09-22T00:00:09.772Z,100.00
2022-09-22T00:02:36.451Z,100.00
2022-09-22T00:05:03.848Z,100.00
2022-09-22T00:07:30.559Z,100.00
2022-09-22T00:09:57.289Z,100.00
2022-09-22T00:12:24.040Z,100.00
2022-09-22T00:14:50.742Z,100.00
2022-09-22T00:17:17.425Z,100.00
2022-09-22T00:19:44.109Z,100.00
2022-09-22T00:22:10.778Z,100.00
2022-09-22T00:24:37.482Z,100.00
2022-09-22T00:27:04.187Z,100.00
2022-09-22T00:29:31.057Z,100.00
2022-09-22T00:31:57.946Z,100.00
2022-09-22T00:34:27.420Z,100.00
2022-09-22T00:36:54.780Z,100.00
2022-09-22T00:39:22.060Z,100.00
2022-09-22T00:41:51.126Z,100.00
2022-09-22T00:44:26.981Z,100.00
2022-09-22T00:47:13.954Z,100.00
2022-09-22T00:50:05.583Z,100.00
2022-09-22T00:52:35.339Z,100.00
2022-09-22T00:55:07.097Z,100.00
2022-09-22T00:57:37.038Z,100.00
2022-09-22T01:00:07.659Z,100.00
2022-09-22T01:02:34.636Z,100.00
2022-09-22T01:05:01.351Z,100.00
2022-09-22T01:07:31.079Z,100.00
2022-09-22T01:09:58.991Z,100.00
2022-09-22T01:12:31.749Z,100.00
2022-09-22T01:18:20.004Z,100.00
2022-09-22T01:26:49.472Z,100.00
2022-09-22T01:29:22.018Z,100.00
2022-09-22T01:32:02.882Z,100.00
2022-09-22T01:34:34.021Z,100.00
2022-09-22T01:37:09.812Z,100.00
2022-09-22T01:39:54.808Z,100.00
2022-09-22T01:42:33.896Z,100.00
2022-09-22T01:45:09.922Z,100.00
2022-09-22T01:47:52.303Z,100.00
2022-09-22T01:50:32.671Z,100.00
2022-09-22T01:53:05.279Z,100.00
2022-09-22T01:55:35.859Z,100.00
2022-09-22T01:58:07.600Z,100.00
2022-09-22T02:00:39.519Z,100.00
2022-09-22T02:03:18.976Z,100.00
2022-09-22T02:05:50.954Z,100.00
2022-09-22T02:08:24.696Z,100.00
2022-09-22T02:10:53.848Z,100.00
2022-09-22T02:13:20.605Z,100.00
2022-09-22T02:16:02.425Z,100.00
2022-09-22T02:18:39.788Z,100.00
2022-09-22T02:21:06.568Z,100.00
2022-09-22T02:23:33.427Z,100.00
2022-09-22T02:26:03.074Z,100.00
2022-09-22T02:28:32.674Z,100.00
2022-09-22T02:31:19.686Z,100.00
2022-09-22T02:33:48.198Z,100.00
2022-09-22T02:36:26.230Z,100.00
2022-09-22T02:38:55.950Z,100.00
2022-09-22T02:41:45.812Z,100.00
2022-09-22T02:44:21.955Z,100.00
2022-09-22T02:47:06.280Z,100.00
2022-09-22T02:49:33.261Z,100.00
2022-09-22T02:52:00.243Z,100.00
2022-09-22T02:54:27.028Z,100.00
2022-09-22T02:56:54.280Z,100.00
2022-09-22T02:59:21.261Z,100.00
2022-09-22T03:01:48.629Z,100.00
2022-09-22T03:04:16.358Z,100.00
2022-09-22T03:06:43.032Z,100.00
2022-09-22T03:09:09.748Z,100.00
2022-09-22T03:11:36.464Z,100.00
2022-09-22T03:14:03.220Z,100.00
2022-09-22T03:16:30.048Z,100.00
2022-09-22T03:18:57.522Z,100.00
2022-09-22T03:21:24.298Z,100.00
2022-09-22T03:23:50.983Z,100.00
2022-09-22T03:26:17.810Z,100.00
2022-09-22T03:28:44.478Z,100.00
2022-09-22T03:31:12.135Z,100.00
2022-09-22T03:33:39.130Z,100.00
2022-09-22T03:36:06.191Z,100.00
2022-09-22T03:38:33.061Z,100.00
2022-09-22T03:41:02.376Z,100.00
2022-09-22T03:43:29.156Z,100.00
2022-09-22T03:45:58.668Z,100.00
2022-09-22T03:48:27.561Z,100.00
2022-09-22T03:50:54.432Z,100.00
2022-09-22T03:53:21.305Z,100.00
2022-09-22T03:55:48.132Z,100.00
2022-09-22T03:58:15.234Z,100.00
2022-09-22T04:00:41.968Z,100.00
2022-09-22T04:03:09.066Z,100.00
2022-09-22T04:05:35.896Z,100.00
2022-09-22T04:08:02.586Z,100.00
2022-09-22T04:10:29.249Z,100.00
2022-09-22T04:12:55.963Z,100.00
2022-09-22T04:15:22.607Z,100.00
2022-09-22T04:17:49.427Z,100.00
2022-09-22T04:20:16.988Z,100.00
2022-09-22T04:22:43.743Z,100.00
2022-09-22T04:25:10.771Z,100.00
2022-09-22T04:27:37.442Z,100.00
2022-09-22T04:30:06.015Z,100.00
2022-09-22T04:32:32.901Z,100.00
2022-09-22T04:34:59.606Z,100.00
2022-09-22T04:37:26.332Z,100.00
2022-09-22T04:39:54.824Z,100.00
2022-09-22T04:42:21.934Z,100.00
2022-09-22T04:44:48.588Z,100.00
2022-09-22T04:47:15.214Z,100.00
2022-09-22T04:49:42.057Z,100.00
2022-09-22T04:52:09.730Z,100.00
2022-09-22T04:54:36.430Z,100.00
2022-09-22T04:57:03.230Z,100.00
2022-09-22T04:59:29.883Z,100.00
2022-09-22T05:01:56.742Z,100.00
2022-09-22T05:04:23.467Z,100.00
2022-09-22T05:07:17.195Z,100.00
2022-09-22T05:09:43.841Z,100.00
2022-09-22T05:12:10.489Z,100.00
2022-09-22T05:14:37.467Z,100.00
2022-09-22T05:17:04.683Z,100.00
2022-09-22T05:19:31.385Z,100.00
2022-09-22T05:21:58.151Z,100.00
2022-09-22T05:24:25.214Z,100.00
2022-09-22T05:26:52.295Z,100.00
2022-09-22T05:29:18.964Z,100.00
2022-09-22T05:31:48.858Z,100.00
2022-09-22T05:34:15.632Z,100.00
2022-09-22T05:36:42.660Z,100.00
2022-09-22T05:39:09.684Z,100.00
2022-09-22T05:41:36.361Z,100.00
2022-09-22T05:44:03.238Z,100.00
2022-09-22T05:46:29.895Z,100.00
2022-09-22T05:48:56.713Z,100.00
2022-09-22T05:51:23.482Z,100.00
2022-09-22T05:53:50.167Z,100.00
2022-09-22T05:56:16.898Z,100.00
2022-09-22T05:58:43.619Z,100.00
2022-09-22T06:01:12.342Z,100.00
2022-09-22T06:03:39.202Z,100.00
2022-09-22T06:06:06.059Z,100.00
2022-09-22T06:08:33.016Z,100.00
2022-09-22T06:10:59.759Z,100.00
2022-09-22T06:13:26.441Z,100.00
2022-09-22T06:15:53.158Z,100.00
2022-09-22T06:18:24.393Z,100.00
2022-09-22T06:20:52.379Z,100.00
2022-09-22T06:23:19.204Z,100.00
2022-09-22T06:25:45.937Z,100.00
2022-09-22T06:28:14.698Z,100.00
2022-09-22T06:30:41.840Z,100.00
2022-09-22T06:33:10.209Z,100.00
2022-09-22T06:35:37.807Z,100.00
2022-09-22T06:38:06.499Z,100.00
2022-09-22T06:40:36.563Z,100.00
2022-09-22T06:43:07.740Z,100.00
2022-09-22T06:45:34.624Z,100.00
2022-09-22T06:48:03.467Z,100.00
2022-09-22T06:50:33.339Z,100.00
2022-09-22T06:53:04.337Z,100.00
2022-09-22T06:55:31.655Z,100.00
2022-09-22T06:57:59.132Z,100.00
2022-09-22T07:00:33.377Z,100.00
2022-09-22T07:03:26.460Z,100.00
2022-09-22T07:06:01.392Z,100.00
2022-09-22T07:08:30.283Z,100.00
2022-09-22T07:10:59.843Z,100.00
2022-09-22T07:13:30.072Z,100.00
2022-09-22T07:16:05.279Z,100.00
2022-09-22T07:18:32.100Z,100.00
2022-09-22T07:21:03.250Z,100.00
2022-09-22T07:23:30.023Z,100.00
2022-09-22T07:25:57.227Z,100.00
2022-09-22T07:28:26.054Z,100.00
2022-09-22T07:30:52.900Z,100.00
2022-09-22T07:33:20.425Z,100.00
2022-09-22T07:35:47.263Z,100.00
2022-09-22T07:38:14.041Z,100.00
2022-09-22T07:40:40.775Z,100.00
2022-09-22T07:43:07.558Z,100.00
2022-09-22T07:45:34.303Z,100.00
2022-09-22T07:48:19.674Z,99.58
2022-09-22T07:50:54.296Z,95.77
2022-09-22T07:53:21.237Z,94.41
2022-09-22T07:55:48.572Z,94.54
2022-09-22T07:58:17.398Z,95.02
2022-09-22T08:00:44.549Z,93.59
2022-09-22T08:03:11.264Z,90.73
2022-09-22T08:05:39.588Z,92.40
2022-09-22T08:08:08.163Z,96.74
2022-09-22T08:10:35.619Z,97.49
2022-09-22T08:13:04.679Z,98.68
2022-09-22T08:15:31.635Z,95.53
2022-09-22T08:17:58.981Z,96.81
2022-09-22T08:20:30.123Z,95.20
2022-09-22T08:23:03.444Z,93.60
2022-09-22T08:25:30.733Z,93.93
2022-09-22T08:27:57.702Z,94.04
2022-09-22T08:30:24.537Z,93.56
2022-09-22T08:32:51.283Z,93.62
2022-09-22T08:35:18.544Z,94.40
2022-09-22T08:37:45.882Z,93.43
2022-09-22T08:40:23.821Z,91.20
2022-09-22T08:42:55.758Z,90.88
2022-09-22T08:45:31.181Z,90.39
2022-09-22T08:48:26.149Z,89.67
2022-09-22T08:51:16.886Z,88.83
2022-09-22T08:53:49.874Z,87.05
2022-09-22T08:56:31.930Z,87.95
2022-09-22T08:59:11.044Z,86.82
2022-09-22T09:02:15.509Z,85.63
2022-09-22T09:05:07.185Z,84.67
2022-09-22T09:08:04.876Z,83.73
2022-09-22T09:10:47.395Z,84.65
2022-09-22T09:13:42.257Z,83.22
2022-09-22T09:16:34.286Z,83.81
2022-09-22T09:19:11.188Z,82.97
2022-09-22T09:21:44.391Z,83.67
2022-09-22T09:27:21.840Z,82.63
2022-09-22T09:30:00.482Z,82.31
2022-09-22T09:32:34.473Z,80.53
2022-09-22T09:35:02.821Z,84.34
2022-09-22T09:37:30.630Z,79.31
2022-09-22T09:40:03.463Z,80.51
2022-09-22T09:42:35.027Z,78.47
2022-09-22T09:45:04.360Z,78.67
2022-09-22T09:47:47.735Z,81.13
2022-09-22T09:50:16.050Z,81.19
2022-09-22T09:52:43.074Z,76.19
2022-09-22T09:55:27.408Z,80.94
2022-09-22T09:58:10.957Z,75.59
2022-09-22T10:00:58.774Z,73.47
2022-09-22T10:03:28.124Z,76.18
2022-09-22T10:06:00.801Z,74.86
2022-09-22T10:08:29.857Z,72.81
2022-09-22T10:10:59.420Z,72.29
2022-09-22T10:13:32.462Z,71.70
2022-09-22T10:16:21.405Z,76.56
2022-09-22T10:19:10.123Z,77.84
2022-09-22T10:21:37.787Z,76.84
2022-09-22T10:24:23.179Z,77.43
2022-09-22T10:26:56.154Z,75.00
2022-09-22T10:29:23.547Z,72.66
2022-09-22T10:31:59.909Z,70.47
2022-09-22T10:34:38.763Z,74.35
2022-09-22T10:37:15.607Z,76.37
2022-09-22T10:39:45.333Z,75.64
2022-09-22T10:42:23.401Z,76.98
2022-09-22T10:44:52.768Z,76.53
2022-09-22T10:47:31.515Z,75.87
2022-09-22T10:50:24.787Z,73.13
2022-09-22T10:53:00.520Z,72.09
2022-09-22T10:55:33.077Z,71.92
2022-09-22T10:58:15.455Z,70.44
2022-09-22T11:00:42.718Z,70.16
2022-09-22T11:03:27.479Z,71.33
2022-09-22T11:06:31.148Z,69.19
2022-09-22T11:09:38.102Z,71.07
2022-09-22T11:12:19.331Z,70.02
2022-09-22T11:14:46.110Z,69.13
2022-09-22T11:17:22.644Z,71.19
2022-09-22T11:19:53.152Z,66.30
2022-09-22T11:22:39.426Z,67.71
2022-09-22T11:25:35.677Z,66.15
2022-09-22T11:28:12.329Z,65.55
2022-09-22T11:30:50.111Z,63.83
2022-09-22T11:33:48.974Z,63.94
2022-09-22T11:36:57.848Z,65.18
2022-09-22T11:39:43.491Z,67.93
2022-09-22T11:42:18.983Z,64.22
2022-09-22T11:45:13.593Z,67.56
2022-09-22T11:47:51.989Z,68.38
2022-09-22T11:50:35.773Z,67.78
2022-09-22T11:53:13.705Z,63.23
2022-09-22T11:56:11.653Z,60.71
2022-09-22T11:58:41.142Z,57.75
2022-09-22T12:01:14.185Z,57.48
2022-09-22T12:03:46.276Z,56.76
2022-09-22T12:06:29.471Z,54.63
2022-09-22T12:09:03.590Z,53.60
2022-09-22T12:11:35.958Z,51.01
2022-09-22T12:14:04.672Z,50.58
2022-09-22T12:17:07.415Z,51.60
2022-09-22T12:19:49.397Z,49.31
2022-09-22T12:22:28.198Z,51.12
2022-09-22T12:24:55.021Z,50.05
2022-09-22T12:27:24.820Z,50.89
2022-09-22T12:30:02.354Z,50.85
2022-09-22T12:32:50.670Z,52.60
2022-09-22T12:35:31.091Z,54.49
2022-09-22T12:38:01.619Z,55.23
2022-09-22T12:40:37.387Z,51.79
2022-09-22T12:43:04.374Z,51.73
2022-09-22T12:45:41.799Z,53.88
2022-09-22T12:48:18.324Z,54.42
2022-09-22T12:50:46.350Z,56.31
2022-09-22T12:53:22.165Z,55.47
2022-09-22T12:55:50.038Z,56.79
2022-09-22T12:58:23.538Z,56.33
2022-09-22T13:00:56.460Z,56.01
2022-09-22T13:03:26.247Z,57.54
2022-09-22T13:05:53.264Z,56.21
2022-09-22T13:08:28.169Z,55.83
2022-09-22T13:10:56.997Z,56.33
2022-09-22T13:13:35.286Z,55.47
2022-09-22T13:16:15.584Z,55.22
2022-09-22T13:18:52.287Z,56.48
2022-09-22T13:21:25.813Z,53.51
2022-09-22T13:23:55.543Z,56.23
2022-09-22T13:26:22.145Z,55.19
2022-09-22T13:29:15.811Z,51.82
2022-09-22T13:31:45.341Z,53.35
2022-09-22T13:34:25.321Z,53.63
2022-09-22T13:36:56.048Z,50.58
2022-09-22T13:41:53.475Z,52.76
2022-09-22T13:44:27.241Z,51.43
2022-09-22T13:46:55.947Z,50.60
2022-09-22T13:49:36.259Z,48.50
2022-09-22T13:52:12.927Z,50.46
2022-09-22T14:00:12.852Z,50.74
2022-09-22T14:02:45.765Z,52.05
2022-09-22T14:05:25.353Z,50.69
2022-09-22T14:08:11.268Z,53.71
2022-09-22T14:10:42.503Z,57.00
2022-09-22T14:13:57.949Z,57.38
2022-09-22T14:16:34.980Z,58.63
2022-09-22T14:19:06.090Z,59.01
2022-09-22T14:21:41.120Z,57.60
2022-09-22T14:24:08.163Z,58.49
2022-09-22T14:26:44.657Z,60.50
2022-09-22T14:29:19.979Z,59.41
2022-09-22T14:31:52.322Z,61.50
2022-09-22T14:34:27.939Z,62.15
2022-09-22T14:36:56.571Z,64.24
2022-09-22T14:39:34.425Z,66.30
2022-09-22T14:42:16.487Z,71.89
2022-09-22T14:44:46.596Z,73.04
2022-09-22T14:47:29.088Z,76.93
2022-09-22T14:50:15.057Z,77.87
2022-09-22T14:52:56.141Z,79.62
2022-09-22T14:55:39.191Z,84.18
2022-09-22T14:58:14.804Z,89.84
2022-09-22T15:01:25.291Z,84.84
2022-09-22T15:04:14.838Z,94.56
2022-09-22T15:06:43.529Z,91.93
2022-09-22T15:09:24.302Z,90.52
2022-09-22T15:12:03.691Z,93.08
2022-09-22T15:14:46.852Z,95.73
2022-09-22T15:17:54.471Z,97.96
2022-09-22T15:20:25.493Z,92.53
2022-09-22T15:22:57.054Z,89.90
2022-09-22T15:25:24.702Z,90.33
2022-09-22T15:27:53.735Z,87.90
2022-09-22T15:30:22.255Z,88.38
2022-09-22T15:32:50.181Z,89.57
2022-09-22T15:35:18.409Z,90.64
2022-09-22T15:37:47.258Z,91.56
2022-09-22T15:40:20.376Z,95.97
2022-09-22T15:43:11.267Z,98.99
2022-09-22T15:45:37.491Z,100.00
2022-09-22T15:48:04.656Z,100.00
2022-09-22T15:50:31.579Z,100.00
2022-09-22T15:52:58.912Z,100.00
2022-09-22T15:55:48.481Z,98.61
2022-09-22T15:58:19.151Z,100.00
2022-09-22T16:00:47.846Z,100.00
2022-09-22T16:03:22.911Z,100.00
2022-09-22T16:05:57.470Z,100.00
2022-09-22T16:08:34.080Z,100.00
2022-09-22T16:11:05.716Z,100.00
2022-09-22T16:14:05.751Z,100.00
2022-09-22T16:16:36.776Z,100.00
2022-09-22T16:19:11.668Z,100.00
2022-09-22T16:21:45.096Z,100.00
2022-09-22T16:24:13.229Z,100.00
2022-09-22T16:26:40.990Z,100.00
2022-09-22T16:29:09.925Z,100.00
2022-09-22T16:31:39.799Z,100.00
2022-09-22T16:34:07.621Z,100.00
2022-09-22T16:40:00.899Z,100.00
2022-09-22T16:55:37.783Z,100.00
2022-09-22T16:58:32.419Z,100.00
2022-09-22T17:04:59.940Z,100.00
2022-09-22T17:07:29.328Z,100.00
2022-09-22T17:09:57.511Z,100.00
2022-09-22T17:12:26.184Z,100.00
2022-09-22T17:14:54.815Z,100.00
2022-09-22T17:17:21.740Z,100.00
2022-09-22T17:19:48.737Z,100.00
2022-09-22T17:22:15.705Z,100.00
2022-09-22T17:24:43.412Z,100.00
2022-09-22T17:27:10.263Z,100.00
2022-09-22T17:29:37.160Z,100.00
2022-09-22T17:32:08.571Z,100.00
2022-09-22T17:37:01.425Z,100.00
2022-09-22T17:39:29.904Z,100.00
2022-09-22T17:41:57.079Z,100.00
2022-09-22T17:44:26.400Z,100.00
2022-09-22T17:47:12.673Z,100.00
2022-09-22T17:49:59.023Z,100.00
2022-09-22T17:52:32.216Z,100.00
2022-09-22T17:55:08.344Z,100.00
2022-09-22T17:57:40.413Z,100.00
2022-09-22T18:00:11.333Z,100.00
2022-09-22T18:08:03.556Z,100.00
2022-09-22T18:10:34.352Z,100.00
2022-09-22T18:13:02.153Z,100.00
2022-09-22T18:15:30.056Z,100.00
2022-09-22T18:17:58.321Z,100.00
2022-09-22T18:20:26.452Z,100.00
2022-09-22T18:22:54.785Z,100.00
2022-09-22T18:25:24.179Z,100.00
2022-09-22T18:27:51.879Z,100.00
2022-09-22T18:30:19.611Z,100.00
2022-09-22T18:32:48.158Z,100.00
2022-09-22T18:35:15.914Z,100.00
2022-09-22T18:37:43.245Z,100.00
2022-09-22T18:40:14.518Z,100.00
2022-09-22T18:42:44.912Z,100.00
2022-09-22T18:45:14.485Z,100.00
2022-09-22T18:47:43.457Z,100.00
2022-09-22T18:50:11.769Z,100.00
2022-09-22T18:52:42.822Z,100.00
2022-09-22T18:55:12.043Z,100.00
2022-09-22T18:57:38.950Z,100.00
2022-09-22T19:00:07.624Z,100.00
2022-09-22T19:02:35.051Z,100.00
2022-09-22T19:05:02.092Z,100.00
2022-09-22T19:07:42.066Z,100.00
2022-09-22T19:10:13.131Z,100.00
2022-09-22T19:12:43.078Z,100.00
2022-09-22T19:15:13.991Z,100.00
2022-09-22T19:17:45.901Z,100.00
2022-09-22T19:20:14.942Z,100.00
2022-09-22T19:22:42.213Z,100.00
2022-09-22T19:25:09.934Z,100.00
2022-09-22T19:27:39.089Z,100.00
2022-09-22T19:30:06.699Z,100.00
2022-09-22T19:32:33.639Z,100.00
2022-09-22T19:35:00.480Z,100.00
2022-09-22T19:37:29.679Z,100.00
2022-09-22T19:39:58.715Z,100.00
2022-09-22T19:42:26.816Z,100.00
2022-09-22T19:45:01.911Z,100.00
2022-09-22T19:47:29.062Z,100.00
2022-09-22T19:49:56.630Z,100.00
2022-09-22T19:52:23.347Z,100.00
2022-09-22T19:54:50.450Z,100.00
2022-09-22T19:57:17.443Z,100.00
2022-09-22T19:59:45.100Z,100.00
2022-09-22T20:02:16.093Z,100.00
2022-09-22T20:04:43.140Z,100.00
2022-09-22T20:07:11.104Z,100.00
2022-09-22T20:09:39.697Z,100.00
2022-09-22T20:12:06.889Z,100.00
2022-09-22T20:14:34.689Z,100.00
2022-09-22T20:17:08.975Z,100.00
2022-09-22T20:19:41.290Z,100.00
2022-09-22T20:22:28.570Z,100.00
2022-09-22T20:25:01.750Z,100.00
2022-09-22T20:27:39.554Z,100.00
2022-09-22T20:30:09.094Z,100.00
2022-09-22T20:32:35.882Z,100.00
2022-09-22T20:35:02.785Z,100.00
2022-09-22T20:37:32.109Z,100.00
2022-09-22T20:40:08.257Z,100.00
2022-09-22T20:42:39.195Z,100.00
2022-09-22T20:45:08.968Z,100.00
2022-09-22T20:47:36.788Z,100.00
2022-09-22T20:50:05.500Z,100.00
2022-09-22T20:52:33.829Z,100.00
2022-09-22T20:55:01.879Z,100.00
2022-09-22T20:57:31.239Z,100.00
2022-09-22T20:59:59.362Z,100.00
2022-09-22T21:02:27.394Z,100.00
2022-09-22T21:04:55.313Z,100.00
2022-09-22T21:07:22.245Z,100.00
2022-09-22T21:10:07.862Z,100.00
2022-09-22T21:12:35.202Z,100.00
2022-09-22T21:15:02.105Z,100.00
2022-09-22T21:17:29.918Z,100.00
2022-09-22T21:19:57.982Z,100.00
2022-09-22T21:22:28.215Z,100.00
2022-09-22T21:24:55.620Z,100.00
2022-09-22T21:27:22.503Z,100.00
2022-09-22T21:29:49.232Z,100.00
2022-09-22T21:32:16.091Z,100.00
2022-09-22T21:34:43.179Z,100.00
2022-09-22T21:37:10.062Z,100.00
2022-09-22T21:39:36.828Z,100.00
2022-09-22T21:42:03.717Z,100.00
2022-09-22T21:44:30.449Z,100.00
2022-09-22T21:46:57.339Z,100.00
2022-09-22T21:49:24.407Z,100.00
2022-09-22T21:51:51.219Z,100.00
2022-09-22T21:54:19.265Z,100.00
2022-09-22T21:56:46.113Z,100.00
2022-09-22T21:59:14.078Z,100.00
2022-09-22T22:01:42.423Z,100.00
2022-09-22T22:04:10.377Z,100.00
2022-09-22T22:06:43.281Z,100.00
2022-09-22T22:09:18.837Z,100.00
2022-09-22T22:11:54.839Z,100.00
2022-09-22T22:14:22.987Z,100.00
2022-09-22T22:16:52.685Z,100.00
2022-09-22T22:19:22.086Z,100.00
2022-09-22T22:21:50.861Z,100.00
2022-09-22T22:24:26.313Z,100.00
2022-09-22T22:27:01.689Z,100.00
2022-09-22T22:29:32.580Z,100.00
2022-09-22T22:31:59.450Z,100.00
2022-09-22T22:34:26.326Z,100.00
2022-09-22T22:36:56.562Z,100.00
2022-09-22T22:39:23.271Z,100.00
2022-09-22T22:41:50.115Z,100.00
2022-09-22T22:44:19.638Z,100.00
2022-09-22T22:46:46.314Z,100.00
2022-09-22T22:49:13.181Z,100.00
2022-09-22T22:51:43.396Z,100.00
2022-09-22T22:54:11.458Z,100.00
2022-09-22T22:56:42.106Z,100.00
2022-09-22T22:59:09.875Z,100.00
2022-09-22T23:03:36.120Z,100.00
2022-09-22T23:06:02.828Z,100.00
2022-09-22T23:08:29.754Z,100.00
2022-09-22T23:11:11.556Z,100.00
2022-09-22T23:13:40.615Z,100.00
2022-09-22T23:16:09.781Z,100.00
2022-09-22T23:18:38.534Z,100.00
2022-09-22T23:21:06.198Z,100.00
2022-09-22T23:23:40.257Z,100.00
2022-09-22T23:26:07.950Z,100.00
2022-09-22T23:28:36.551Z,100.00
2022-09-22T23:31:09.810Z,100.00
2022-09-22T23:33:38.211Z,100.00
2022-09-22T23:36:06.650Z,100.00
2022-09-22T23:38:35.322Z,100.00
2022-09-22T23:41:02.978Z,100.00
2022-09-22T23:43:31.611Z,100.00
2022-09-22T23:45:59.190Z,100.00
2022-09-22T23:48:29.411Z,100.00
2022-09-22T23:50:56.153Z,100.00
2022-09-22T23:53:24.972Z,100.00
2022-09-22T23:55:51.923Z,100.00
2022-09-22T23:58:19.222Z,100.00
